Time;durP1;ratioP1;P1;durP2;ratioP2;P2;SDS_P1;SDS_P2;PMS_P1;PMS_P2;Temp;Humidity;BMP_temperature;BMP_pressure;BME280_temperature;BME280_humidity;BME280_pressure;Samples;Min_cycle;Max_cycle;Signal;HPM_P1;HPM_P2
2022/09/26 00:00:33;;;;;;;5.03;3.10;;;13.60;75.30;;;;;;5095614;28;20024;-69
2022/09/26 00:02:59;;;;;;;7.18;3.60;;;13.60;75.30;;;;;;5094518;28;20502;-69
2022/09/26 00:05:24;;;;;;;6.88;3.67;;;13.60;75.20;;;;;;5094449;28;20032;-69
2022/09/26 00:07:50;;;;;;;6.57;3.78;;;13.60;75.20;;;;;;5095423;28;20025;-69
2022/09/26 00:10:15;;;;;;;5.30;3.20;;;13.60;75.20;;;;;;5094872;28;20032;-69
2022/09/26 00:12:41;;;;;;;7.05;3.95;;;13.50;75.30;;;;;;5095445;28;20035;-69
2022/09/26 00:15:07;;;;;;;6.10;3.50;;;13.50;75.20;;;;;;5095240;28;20032;-69
2022/09/26 00:17:33;;;;;;;6.00;3.35;;;13.50;76.00;;;;;;5095325;28;20035;-69
2022/09/26 00:19:58;;;;;;;6.07;3.30;;;13.50;75.30;;;;;;5095066;28;20037;-69
2022/09/26 00:22:24;;;;;;;5.82;3.40;;;13.40;75.50;;;;;;5095265;28;20024;-69
2022/09/26 00:24:49;;;;;;;4.70;3.28;;;13.40;75.60;;;;;;5095076;28;20025;-69
2022/09/26 00:27:15;;;;;;;5.82;3.80;;;13.40;75.70;;;;;;5095131;28;20024;-69
2022/09/26 00:29:41;;;;;;;5.75;3.53;;;13.40;75.80;;;;;;5094891;28;20021;-69
2022/09/26 00:32:06;;;;;;;5.13;3.30;;;13.40;75.70;;;;;;5095045;28;20032;-70
2022/09/26 00:34:32;;;;;;;6.05;3.40;;;13.40;75.80;;;;;;5095023;28;20024;-69
2022/09/26 00:36:57;;;;;;;5.93;2.92;;;13.40;75.90;;;;;;5093826;28;20036;-69
2022/09/26 00:39:23;;;;;;;8.48;3.72;;;13.30;76.00;;;;;;5094671;28;20033;-69
2022/09/26 00:41:49;;;;;;;6.15;3.42;;;13.30;76.10;;;;;;5094720;28;20017;-69
2022/09/26 00:44:37;;;;;;;5.47;3.42;;;13.30;76.40;;;;;;5094678;28;20028;-69
2022/09/26 00:47:03;;;;;;;6.00;3.38;;;13.30;76.40;;;;;;5093637;28;20024;-69
2022/09/26 00:49:34;;;;;;;5.32;3.25;;;13.30;76.50;;;;;;5094554;28;20021;-69
2022/09/26 00:52:27;;;;;;;7.78;3.63;;;13.30;76.80;;;;;;5094516;28;20080;-69
2022/09/26 00:54:55;;;;;;;5.80;3.60;;;13.30;76.80;;;;;;5094509;28;20054;-69
2022/09/26 00:57:28;;;;;;;5.43;3.42;;;13.30;76.60;;;;;;5094379;28;20027;-69
2022/09/26 01:00:00;;;;;;;6.05;3.15;;;13.30;76.70;;;;;;5094174;28;20076;-69
2022/09/26 01:02:27;;;;;;;5.20;3.03;;;13.30;76.70;;;;;;5094361;28;20020;-69
2022/09/26 01:04:54;;;;;;;4.85;2.97;;;13.30;77.00;;;;;;5094236;28;20047;-69
2022/09/26 01:07:22;;;;;;;5.97;3.50;;;13.20;76.90;;;;;;5093185;28;20088;-69
2022/09/26 01:09:48;;;;;;;4.82;3.30;;;13.30;77.10;;;;;;5094158;28;20028;-69
2022/09/26 01:12:15;;;;;;;6.18;3.45;;;13.30;77.40;;;;;;5094113;28;20093;-69
2022/09/26 01:14:42;;;;;;;4.65;3.20;;;13.30;77.20;;;;;;5093075;28;20027;-69
2022/09/26 01:17:09;;;;;;;4.82;3.08;;;13.30;77.20;;;;;;5093992;28;20066;-69
2022/09/26 01:20:12;;;;;;;5.63;2.85;;;13.30;77.30;;;;;;5094024;28;20360;-70
2022/09/26 01:23:13;;;;;;;4.57;2.95;;;13.30;77.70;;;;;;5093721;28;20046;-69
2022/09/26 01:26:06;;;;;;;7.25;3.20;;;13.20;77.80;;;;;;5070301;28;20064;-69
2022/09/26 01:28:55;;;;;;;5.68;3.20;;;13.30;78.00;;;;;;5093940;28;20025;-69
2022/09/26 01:35:01;;;;;;;9.40;3.38;;;13.20;78.00;;;;;;5093885;28;20087;-69
2022/09/26 01:37:40;;;;;;;6.40;3.25;;;13.20;77.80;;;;;;5093738;28;20025;-69
2022/09/26 01:40:16;;;;;;;5.25;3.10;;;13.20;77.80;;;;;;5093749;28;20029;-69
2022/09/26 01:43:01;;;;;;;6.53;3.22;;;13.20;77.70;;;;;;5093701;28;20077;-69
2022/09/26 01:45:42;;;;;;;5.38;3.35;;;13.20;77.60;;;;;;5093649;28;20455;-69
2022/09/26 01:48:20;;;;;;;5.45;3.50;;;13.20;77.60;;;;;;5093714;28;20016;-69
2022/09/26 01:50:54;;;;;;;6.80;3.72;;;13.20;77.40;;;;;;5093539;28;20032;-69
2022/09/26 01:53:19;;;;;;;7.13;3.50;;;13.20;77.60;;;;;;5093547;28;20029;-69
2022/09/26 01:55:52;;;;;;;6.35;3.47;;;13.10;78.00;;;;;;5093446;28;20035;-70
2022/09/26 01:58:32;;;;;;;5.90;3.45;;;13.00;78.30;;;;;;5093313;28;20028;-70
2022/09/26 02:01:02;;;;;;;5.95;3.70;;;13.00;78.40;;;;;;5093367;28;20048;-69
2022/09/26 02:03:34;;;;;;;7.35;3.58;;;12.90;78.60;;;;;;5093432;28;20029;-69
2022/09/26 02:06:06;;;;;;;6.65;3.75;;;12.90;79.10;;;;;;5093419;28;20028;-69
2022/09/26 02:08:39;;;;;;;5.63;3.47;;;12.80;79.30;;;;;;5093394;28;20021;-69
2022/09/26 02:11:16;;;;;;;5.88;3.50;;;12.80;79.70;;;;;;5093368;28;20028;-70
2022/09/26 02:13:47;;;;;;;6.80;3.50;;;12.80;79.70;;;;;;5093344;28;20016;-69
2022/09/26 02:16:21;;;;;;;6.53;3.40;;;12.80;79.70;;;;;;5093442;28;20036;-69
2022/09/26 02:18:57;;;;;;;7.68;3.22;;;12.70;79.90;;;;;;5093188;28;20021;-70
2022/09/26 02:21:23;;;;;;;4.75;3.17;;;12.70;79.80;;;;;;5093280;28;20158;-70
2022/09/26 02:23:51;;;;;;;5.72;3.10;;;12.70;80.00;;;;;;5093199;28;20076;-69
2022/09/26 02:26:17;;;;;;;8.13;3.30;;;12.80;79.80;;;;;;5093128;28;20025;-70
2022/09/26 02:28:43;;;;;;;6.32;3.17;;;12.80;79.90;;;;;;5093086;28;20048;-69
2022/09/26 02:31:11;;;;;;;6.40;3.42;;;12.80;79.70;;;;;;5093126;28;20038;-69
2022/09/26 02:33:37;;;;;;;4.30;3.03;;;12.70;79.70;;;;;;5096753;28;20072;-69
2022/09/26 02:36:07;;;;;;;5.75;3.25;;;12.70;79.50;;;;;;5097300;28;20499;-70
2022/09/26 02:38:33;;;;;;;5.07;2.90;;;12.80;79.30;;;;;;5097108;28;20019;-69
2022/09/26 02:41:14;;;;;;;4.63;2.67;;;12.80;79.50;;;;;;5097117;28;20037;-70
2022/09/26 02:43:53;;;;;;;5.07;2.60;;;12.80;79.40;;;;;;5097024;28;20017;-69
2022/09/26 02:46:48;;;;;;;4.25;2.88;;;12.90;79.50;;;;;;5096999;28;20040;-70
2022/09/26 02:49:48;;;;;;;4.80;2.92;;;12.80;79.30;;;;;;5096919;28;20066;-69
2022/09/26 02:52:40;;;;;;;4.65;2.30;;;12.90;79.50;;;;;;5096891;28;20047;-69
2022/09/26 02:55:05;;;;;;;5.80;2.60;;;12.80;79.20;;;;;;5096816;28;20029;-69
2022/09/26 02:57:49;;;;;;;4.55;2.80;;;12.80;79.20;;;;;;5096723;28;20084;-69
2022/09/26 03:00:23;;;;;;;4.63;2.63;;;12.90;79.10;;;;;;5095468;28;20049;-69
2022/09/26 03:03:12;;;;;;;6.38;2.63;;;12.80;78.90;;;;;;5096657;28;20080;-69
2022/09/26 03:05:41;;;;;;;5.32;2.63;;;12.80;78.80;;;;;;5096625;28;20025;-69
2022/09/26 03:08:20;;;;;;;5.82;2.33;;;12.80;78.80;;;;;;5096526;28;20084;-69
2022/09/26 03:10:47;;;;;;;4.78;2.35;;;12.80;78.70;;;;;;5096490;28;20052;-69
2022/09/26 03:13:16;;;;;;;5.63;2.88;;;12.80;78.60;;;;;;5096438;28;20024;-69
2022/09/26 03:15:47;;;;;;;4.70;2.22;;;12.80;78.40;;;;;;5096395;28;20055;-69
2022/09/26 03:18:18;;;;;;;7.45;2.55;;;12.80;78.30;;;;;;5096417;28;20067;-69
2022/09/26 03:20:45;;;;;;;4.97;2.10;;;12.80;78.20;;;;;;5096223;28;20084;-69
2022/09/26 03:23:11;;;;;;;9.93;2.53;;;12.80;78.30;;;;;;5096220;28;20028;-69
2022/09/26 03:25:37;;;;;;;3.50;2.25;;;12.80;78.30;;;;;;5096201;28;20044;-69
2022/09/26 03:28:04;;;;;;;3.70;2.13;;;12.80;77.80;;;;;;5096049;28;20025;-69
2022/09/26 03:30:30;;;;;;;4.75;2.28;;;12.90;77.80;;;;;;5096147;28;20029;-69
2022/09/26 03:32:55;;;;;;;3.55;2.00;;;12.90;77.80;;;;;;5096044;28;20135;-69
2022/09/26 03:35:21;;;;;;;6.95;2.55;;;12.90;77.80;;;;;;5096024;28;20107;-69
2022/09/26 03:37:47;;;;;;;4.20;2.30;;;12.90;77.80;;;;;;5095991;28;20055;-69
2022/09/26 03:40:14;;;;;;;4.75;2.03;;;12.80;77.40;;;;;;5094830;28;20025;-69
2022/09/26 03:42:39;;;;;;;6.38;1.98;;;12.90;77.80;;;;;;5095916;28;20028;-69
2022/09/26 03:45:09;;;;;;;3.20;2.08;;;12.90;77.70;;;;;;5095010;28;20084;-70
2022/09/26 03:47:36;;;;;;;5.40;2.20;;;12.80;77.50;;;;;;5095796;28;20027;-69
2022/09/26 03:50:04;;;;;;;4.90;2.15;;;12.90;77.60;;;;;;5095735;28;20025;-70
2022/09/26 03:52:30;;;;;;;4.72;2.63;;;12.90;77.60;;;;;;5095715;28;20024;-69
2022/09/26 03:54:55;;;;;;;4.70;2.28;;;12.90;77.30;;;;;;5095685;28;20514;-69
2022/09/26 03:57:21;;;;;;;4.35;1.98;;;12.90;77.30;;;;;;5094692;28;20063;-69
2022/09/26 03:59:47;;;;;;;5.32;1.75;;;12.90;77.30;;;;;;5095323;28;20052;-69
2022/09/26 04:02:12;;;;;;;4.45;1.83;;;12.90;77.20;;;;;;5095543;28;20032;-69
2022/09/26 04:04:38;;;;;;;6.35;1.80;;;12.90;77.00;;;;;;5094610;28;20434;-69
2022/09/26 04:07:04;;;;;;;4.25;2.00;;;12.90;77.20;;;;;;5094480;28;20043;-69
2022/09/26 04:09:30;;;;;;;4.95;1.67;;;12.90;77.40;;;;;;5095556;28;20025;-69
2022/09/26 04:11:55;;;;;;;3.50;1.75;;;12.90;77.30;;;;;;5095514;28;20032;-69
2022/09/26 04:14:21;;;;;;;5.03;1.90;;;12.80;77.30;;;;;;5095423;28;20039;-69
2022/09/26 04:16:47;;;;;;;2.65;1.58;;;12.90;78.20;;;;;;5095385;28;20031;-69
2022/09/26 04:19:13;;;;;;;4.78;1.98;;;12.90;77.40;;;;;;5095156;28;20064;-69
2022/09/26 04:21:40;;;;;;;3.95;1.90;;;12.80;77.50;;;;;;5095133;28;20048;-69
2022/09/26 04:24:11;;;;;;;3.95;1.70;;;12.90;77.60;;;;;;5095119;28;20031;-73
2022/09/26 04:26:40;;;;;;;5.82;2.38;;;12.80;77.40;;;;;;5095102;28;20020;-69
2022/09/26 04:29:05;;;;;;;3.38;1.80;;;12.80;77.40;;;;;;5094981;28;20044;-70
2022/09/26 04:31:35;;;;;;;4.25;1.80;;;12.90;77.20;;;;;;5094947;28;20024;-69
2022/09/26 04:34:03;;;;;;;6.30;1.60;;;12.90;77.00;;;;;;5094940;28;20083;-69
2022/09/26 04:36:29;;;;;;;3.75;1.50;;;12.80;76.90;;;;;;5094871;28;20076;-69
2022/09/26 04:38:56;;;;;;;4.45;2.10;;;12.80;76.90;;;;;;5094751;28;20051;-70
2022/09/26 04:41:22;;;;;;;4.63;1.58;;;12.90;76.80;;;;;;5094901;28;20017;-69
2022/09/26 04:43:48;;;;;;;6.05;1.85;;;12.90;76.70;;;;;;5094681;28;20044;-70
2022/09/26 04:46:16;;;;;;;8.13;2.03;;;12.80;76.70;;;;;;5094652;28;20099;-70
2022/09/26 04:48:43;;;;;;;3.13;1.73;;;12.70;76.90;;;;;;5094631;28;20027;-69
2022/09/26 04:51:11;;;;;;;6.13;1.80;;;12.80;77.10;;;;;;5094529;28;20028;-69
2022/09/26 04:53:38;;;;;;;3.90;1.85;;;12.70;77.30;;;;;;5094475;28;20097;-69
2022/09/26 04:56:04;;;;;;;4.78;2.03;;;12.70;77.00;;;;;;5094424;28;20024;-69
2022/09/26 04:58:30;;;;;;;7.03;1.73;;;12.80;77.20;;;;;;5094183;28;20040;-70
2022/09/26 05:01:01;;;;;;;4.50;1.45;;;12.70;77.00;;;;;;5094308;28;20115;-70
2022/09/26 05:03:28;;;;;;;3.90;2.00;;;12.70;77.40;;;;;;5094333;28;20024;-69
2022/09/26 05:05:54;;;;;;;5.82;2.00;;;12.70;77.30;;;;;;5093282;28;20088;-69
2022/09/26 05:08:20;;;;;;;3.15;1.80;;;12.70;77.40;;;;;;5094210;28;20020;-69
2022/09/26 05:10:52;;;;;;;5.18;1.80;;;12.70;77.30;;;;;;5094134;28;20028;-70
2022/09/26 05:13:18;;;;;;;;;;;12.70;77.30;;;;;;5094537;28;20025;-69
2022/09/26 05:15:43;;;;;;;3.58;1.80;;;12.70;77.10;;;;;;5094093;28;19978;-69
2022/09/26 05:18:10;;;;;;;5.93;1.90;;;12.70;77.50;;;;;;5094011;28;20037;-69
2022/09/26 05:20:37;;;;;;;4.65;1.88;;;12.60;77.70;;;;;;5093881;28;20357;-69
2022/09/26 05:23:04;;;;;;;5.45;2.33;;;12.50;78.00;;;;;;5093962;28;20025;-69
2022/09/26 05:28:23;;;;;;;6.15;2.03;;;12.50;78.50;;;;;;5093966;28;20031;-69
2022/09/26 05:30:50;;;;;;;4.22;2.28;;;12.40;78.70;;;;;;5093832;28;20056;-70
2022/09/26 05:33:18;;;;;;;4.72;2.17;;;12.50;78.90;;;;;;5093754;28;20020;-69
2022/09/26 05:35:47;;;;;;;3.53;2.08;;;12.50;79.30;;;;;;5093724;28;20088;-69
2022/09/26 05:38:13;;;;;;;5.13;1.83;;;12.40;79.50;;;;;;5093714;28;20095;-69
2022/09/26 05:40:56;;;;;;;5.10;2.08;;;12.40;79.40;;;;;;5093733;28;20032;-70
2022/09/26 05:43:27;;;;;;;5.30;2.30;;;12.50;79.90;;;;;;5093798;28;20021;-70
2022/09/26 05:46:02;;;;;;;4.43;2.15;;;12.50;79.70;;;;;;5093586;28;20076;-69
2022/09/26 05:48:29;;;;;;;4.53;2.63;;;12.50;79.90;;;;;;5093533;28;20046;-69
2022/09/26 05:50:55;;;;;;;10.60;3.03;;;12.50;79.90;;;;;;5093528;28;20028;-69
2022/09/26 05:53:21;;;;;;;5.88;2.30;;;12.50;80.10;;;;;;5093526;28;20108;-69
2022/09/26 05:55:50;;;;;;;7.88;2.70;;;12.40;80.30;;;;;;5093477;28;20103;-69
2022/09/26 05:58:17;;;;;;;5.75;2.63;;;12.40;80.40;;;;;;5092217;28;20036;-70
2022/09/26 06:00:46;;;;;;;3.47;2.28;;;12.40;80.50;;;;;;5093388;28;20021;-70
2022/09/26 06:03:13;;;;;;;4.82;2.70;;;12.40;80.60;;;;;;5093375;28;20045;-70
2022/09/26 06:05:40;;;;;;;7.45;2.90;;;12.40;81.10;;;;;;5093357;28;20044;-70
2022/09/26 06:08:07;;;;;;;6.30;2.58;;;12.40;81.30;;;;;;5092922;28;20096;-69
2022/09/26 06:10:34;;;;;;;5.50;2.50;;;12.30;81.20;;;;;;5093328;28;20051;-70
2022/09/26 06:13:01;;;;;;;4.30;2.28;;;12.20;81.70;;;;;;5092396;28;20033;-69
2022/09/26 06:15:28;;;;;;;4.50;2.13;;;12.20;81.50;;;;;;5092276;28;20030;-70
2022/09/26 06:18:04;;;;;;;4.93;2.45;;;12.30;81.60;;;;;;5093220;28;20039;-69
2022/09/26 06:20:32;;;;;;;6.22;2.50;;;12.30;82.00;;;;;;5093287;28;20080;-70
2022/09/26 06:23:01;;;;;;;4.60;2.30;;;12.30;82.00;;;;;;5093188;28;20066;-70
2022/09/26 06:25:27;;;;;;;7.35;2.72;;;12.20;82.30;;;;;;5093168;28;20076;-70
2022/09/26 06:27:56;;;;;;;4.15;3.03;;;12.20;82.00;;;;;;5092212;28;20020;-70
2022/09/26 06:30:22;;;;;;;4.80;2.45;;;12.20;82.10;;;;;;5093143;28;20078;-70
2022/09/26 06:32:51;;;;;;;6.53;2.35;;;12.20;82.40;;;;;;5093105;28;20051;-70
2022/09/26 06:35:18;;;;;;;4.97;2.63;;;12.20;82.50;;;;;;5093067;28;20063;-70
2022/09/26 06:37:44;;;;;;;5.18;2.30;;;12.30;82.40;;;;;;5093054;28;20069;-70
2022/09/26 06:40:10;;;;;;;7.43;2.33;;;12.20;82.50;;;;;;5092952;28;20044;-69
2022/09/26 06:42:37;;;;;;;8.27;2.60;;;12.30;82.50;;;;;;5093020;28;20025;-70
2022/09/26 06:45:07;;;;;;;8.52;3.20;;;12.30;82.40;;;;;;5092977;28;20017;-69
2022/09/26 06:47:34;;;;;;;5.28;2.47;;;12.40;82.60;;;;;;5092889;28;20028;-70
2022/09/26 06:50:00;;;;;;;6.93;2.35;;;12.30;82.30;;;;;;5092941;28;20067;-70
2022/09/26 06:52:26;;;;;;;5.30;2.22;;;12.30;82.60;;;;;;5092910;28;20088;-70
2022/09/26 06:54:54;;;;;;;3.97;2.17;;;12.30;82.60;;;;;;5092849;28;20021;-70
2022/09/26 06:57:20;;;;;;;5.25;2.47;;;12.30;82.40;;;;;;5092905;28;20020;-70
2022/09/26 06:59:46;;;;;;;3.92;2.05;;;12.30;82.60;;;;;;5092573;28;20052;-70
2022/09/26 07:02:11;;;;;;;6.25;2.67;;;12.30;82.40;;;;;;5092835;28;20027;-70
2022/09/26 07:04:37;;;;;;;5.90;2.20;;;12.30;82.00;;;;;;5092799;28;20028;-69
2022/09/26 07:07:03;;;;;;;7.95;2.42;;;12.30;82.10;;;;;;5092794;28;20029;-69
2022/09/26 07:09:28;;;;;;;4.95;2.25;;;12.30;82.10;;;;;;5092782;28;20024;-69
2022/09/26 07:11:54;;;;;;;6.13;1.88;;;12.30;82.30;;;;;;5091826;28;20498;-70
2022/09/26 07:14:20;;;;;;;4.93;2.20;;;12.30;82.10;;;;;;5092740;28;20024;-69
2022/09/26 07:16:52;;;;;;;6.85;2.30;;;12.30;82.00;;;;;;5092721;28;20472;-70
2022/09/26 07:19:18;;;;;;;4.20;2.00;;;12.30;81.80;;;;;;5093862;28;20039;-69
2022/09/26 07:21:45;;;;;;;5.45;2.10;;;12.30;82.20;;;;;;5096298;28;20035;-70
2022/09/26 07:24:13;;;;;;;4.38;2.05;;;12.30;81.90;;;;;;5096255;28;20084;-69
2022/09/26 07:26:40;;;;;;;3.70;2.30;;;12.30;81.50;;;;;;5096236;28;20029;-69
2022/09/26 07:29:07;;;;;;;4.25;2.10;;;12.30;82.00;;;;;;5096065;28;20027;-69
2022/09/26 07:31:33;;;;;;;4.35;2.20;;;12.40;81.60;;;;;;5096121;28;20062;-70
2022/09/26 07:33:58;;;;;;;4.07;2.10;;;12.50;81.70;;;;;;5096224;28;20020;-70
2022/09/26 07:36:24;;;;;;;5.28;2.42;;;12.40;81.70;;;;;;5096019;28;20036;-69
2022/09/26 07:38:49;;;;;;;5.50;2.08;;;12.40;81.60;;;;;;5095984;28;20088;-69
2022/09/26 07:41:16;;;;;;;3.83;1.90;;;12.40;81.60;;;;;;5095996;28;20040;-69
2022/09/26 07:43:42;;;;;;;4.13;1.65;;;12.40;81.70;;;;;;5095938;28;20031;-70
2022/09/26 07:51:37;;;;;;;4.18;2.13;;;12.40;81.70;;;;;;5095878;28;20086;-70
2022/09/26 07:54:04;;;;;;;5.07;2.15;;;12.40;81.60;;;;;;5095858;28;20048;-69
2022/09/26 07:56:32;;;;;;;4.53;1.90;;;12.40;81.90;;;;;;5095648;28;20029;-70
2022/09/26 07:59:00;;;;;;;4.43;2.17;;;12.50;81.90;;;;;;5095392;28;20056;-71
2022/09/26 08:01:25;;;;;;;4.20;1.90;;;12.50;81.60;;;;;;5095574;28;20047;-70
2022/09/26 08:03:57;;;;;;;2.78;1.60;;;12.50;82.00;;;;;;5095513;28;20052;-70
2022/09/26 08:06:26;;;;;;;3.20;1.80;;;12.50;82.10;;;;;;5095686;28;20016;-70
2022/09/26 08:08:53;;;;;;;4.40;1.90;;;12.50;82.30;;;;;;5095443;28;20047;-70
2022/09/26 08:11:19;;;;;;;3.70;1.90;;;12.50;82.30;;;;;;5095422;28;20044;-70
2022/09/26 08:13:46;;;;;;;6.45;1.90;;;12.60;82.30;;;;;;5095349;28;20028;-70
2022/09/26 08:16:21;;;;;;;6.45;2.30;;;12.60;82.20;;;;;;5095312;28;20055;-70
2022/09/26 08:18:51;;;;;;;4.38;2.00;;;12.60;82.30;;;;;;5095279;28;20036;-71
2022/09/26 08:21:17;;;;;;;5.03;2.20;;;12.60;82.20;;;;;;5093084;28;20491;-70
2022/09/26 08:23:43;;;;;;;8.02;2.03;;;12.60;82.30;;;;;;5095108;28;20040;-70
2022/09/26 08:26:09;;;;;;;2.83;1.88;;;12.60;82.30;;;;;;5095072;28;20032;-70
2022/09/26 08:28:36;;;;;;;2.92;1.42;;;12.60;82.60;;;;;;5094983;28;20084;-70
2022/09/26 08:31:03;;;;;;;2.78;1.70;;;12.60;82.40;;;;;;5094417;28;20032;-70
2022/09/26 08:33:34;;;;;;;4.93;2.20;;;12.60;82.60;;;;;;5094965;28;20021;-70
2022/09/26 08:36:07;;;;;;;6.25;2.10;;;12.70;82.80;;;;;;5094960;28;20017;-69
2022/09/26 08:38:34;;;;;;;5.38;1.98;;;12.70;82.40;;;;;;5094987;28;20021;-70
2022/09/26 08:41:31;;;;;;;4.25;1.90;;;12.70;82.50;;;;;;5094721;28;20108;-70
2022/09/26 08:44:06;;;;;;;4.15;2.38;;;12.70;82.70;;;;;;5094791;28;20021;-70
2022/09/26 08:47:00;;;;;;;2.88;1.70;;;12.80;82.70;;;;;;5094732;28;20021;-70
2022/09/26 08:49:28;;;;;;;4.20;2.08;;;12.80;82.70;;;;;;5094654;28;20028;-70
2022/09/26 08:51:57;;;;;;;6.30;2.15;;;12.70;82.60;;;;;;5094569;28;20060;-70
2022/09/26 08:54:38;;;;;;;3.55;2.00;;;12.70;82.80;;;;;;5094556;28;20020;-69
2022/09/26 08:57:33;;;;;;;5.55;2.42;;;12.70;82.90;;;;;;5094481;28;20033;-70
2022/09/26 09:00:13;;;;;;;3.53;1.92;;;12.70;83.20;;;;;;5094192;28;20041;-70
2022/09/26 09:02:55;;;;;;;5.15;1.70;;;12.70;83.20;;;;;;5094362;28;20025;-70
2022/09/26 09:05:44;;;;;;;7.35;2.33;;;12.70;83.20;;;;;;5094384;28;20024;-70
2022/09/26 09:08:20;;;;;;;3.42;1.80;;;12.70;83.20;;;;;;5094322;28;20020;-70
2022/09/26 09:11:09;;;;;;;3.13;2.08;;;12.80;83.30;;;;;;5094226;28;20028;-70
2022/09/26 09:13:55;;;;;;;2.67;1.60;;;12.70;83.60;;;;;;5094317;28;20028;-71
2022/09/26 09:17:00;;;;;;;3.53;1.70;;;12.70;83.90;;;;;;5082968;28;20039;-70
2022/09/26 09:19:47;;;;;;;3.92;1.90;;;12.80;83.90;;;;;;5094003;28;20031;-70
2022/09/26 09:22:50;;;;;;;2.75;1.98;;;12.90;83.90;;;;;;5094016;28;20041;-70
2022/09/26 09:25:31;;;;;;;6.68;2.17;;;13.00;84.40;;;;;;5093944;28;20357;-70
2022/09/26 09:28:35;;;;;;;4.85;2.15;;;13.00;84.00;;;;;;5094018;28;20021;-70
2022/09/26 09:31:05;;;;;;;5.43;2.17;;;13.00;84.00;;;;;;5093977;28;20024;-71
2022/09/26 09:33:42;;;;;;;6.45;2.20;;;12.90;84.60;;;;;;5093831;28;20080;-71
2022/09/26 09:36:13;;;;;;;5.38;2.10;;;13.00;85.30;;;;;;5093799;28;20084;-70
2022/09/26 09:38:42;;;;;;;4.53;2.00;;;13.00;85.50;;;;;;5093778;28;20028;-70
2022/09/26 09:41:34;;;;;;;4.43;2.70;;;13.00;85.60;;;;;;5093281;28;20028;-70
2022/09/26 09:44:04;;;;;;;5.07;2.40;;;13.00;85.80;;;;;;5093724;28;20029;-70
2022/09/26 09:46:41;;;;;;;5.65;2.47;;;12.90;86.30;;;;;;5093625;28;20486;-70
2022/09/26 09:49:07;;;;;;;6.13;2.50;;;12.90;87.60;;;;;;5093743;28;20040;-70
2022/09/26 09:51:38;;;;;;;2.72;1.50;;;12.90;87.00;;;;;;5093561;28;20046;-71
2022/09/26 09:54:37;;;;;;;6.30;2.83;;;12.90;87.30;;;;;;5093650;28;20028;-71
2022/09/26 09:57:24;;;;;;;7.95;2.65;;;12.90;87.40;;;;;;5093677;28;20027;-71
2022/09/26 10:00:05;;;;;;;4.80;2.60;;;12.90;87.20;;;;;;5093240;28;20093;-71
2022/09/26 10:02:52;;;;;;;5.53;2.90;;;12.90;87.80;;;;;;5093403;28;20044;-71
2022/09/26 10:05:32;;;;;;;5.63;2.30;;;12.90;88.90;;;;;;5093445;28;20024;-71
2022/09/26 10:07:58;;;;;;;6.05;2.70;;;12.90;88.60;;;;;;5093517;28;20027;-70
2022/09/26 10:10:39;;;;;;;5.90;2.90;;;12.90;89.10;;;;;;5092314;28;20032;-70
2022/09/26 10:13:07;;;;;;;4.50;2.65;;;13.00;89.50;;;;;;5093525;28;20052;-70
2022/09/26 10:15:35;;;;;;;7.07;2.88;;;13.00;88.80;;;;;;5093320;28;20080;-70
2022/09/26 10:18:05;;;;;;;5.60;2.60;;;13.00;88.50;;;;;;5093299;28;20039;-70
2022/09/26 10:20:39;;;;;;;8.30;2.83;;;13.10;88.60;;;;;;5092142;28;20029;-71
2022/09/26 10:23:16;;;;;;;3.83;2.40;;;13.10;88.50;;;;;;5093422;28;20021;-71
2022/09/26 10:25:46;;;;;;;5.72;2.22;;;13.10;88.10;;;;;;5093233;28;20029;-71
2022/09/26 10:28:23;;;;;;;4.55;2.50;;;13.10;88.70;;;;;;5093161;28;20025;-71
2022/09/26 10:31:00;;;;;;;6.28;2.72;;;13.10;88.50;;;;;;5093211;28;20028;-72
2022/09/26 10:33:29;;;;;;;6.75;2.72;;;13.10;88.10;;;;;;5093153;28;20031;-71
2022/09/26 10:36:03;;;;;;;4.30;2.47;;;13.10;87.60;;;;;;5093093;28;20016;-71
2022/09/26 10:38:29;;;;;;;6.72;2.40;;;13.10;88.40;;;;;;5093153;28;20054;-71
2022/09/26 10:41:00;;;;;;;5.43;2.80;;;13.10;87.70;;;;;;5092994;28;20054;-71
2022/09/26 10:43:34;;;;;;;4.93;2.40;;;13.10;87.80;;;;;;5092988;28;20024;-71
2022/09/26 10:46:08;;;;;;;7.15;2.58;;;13.20;88.20;;;;;;5093007;28;20047;-71
2022/09/26 10:48:42;;;;;;;4.88;2.20;;;13.20;88.00;;;;;;5093035;28;20028;-72
2022/09/26 10:51:08;;;;;;;6.47;2.40;;;13.20;87.60;;;;;;5092974;28;20031;-72
2022/09/26 10:53:39;;;;;;;3.72;2.33;;;13.10;87.90;;;;;;5094716;28;20036;-71
2022/09/26 10:56:24;;;;;;;7.10;2.45;;;13.10;88.20;;;;;;5096867;28;20028;-71
2022/09/26 10:58:56;;;;;;;6.57;2.58;;;13.10;88.00;;;;;;5096590;28;20049;-71
2022/09/26 11:01:28;;;;;;;5.85;2.42;;;13.10;88.30;;;;;;5096677;28;20044;-71
2022/09/26 11:03:59;;;;;;;6.63;2.15;;;13.10;88.20;;;;;;5095745;28;20024;-70
2022/09/26 11:06:32;;;;;;;2.53;1.98;;;13.10;88.50;;;;;;5096667;28;20023;-71
2022/09/26 11:09:03;;;;;;;4.22;2.60;;;13.00;88.40;;;;;;5096590;28;20021;-70
2022/09/26 11:11:35;;;;;;;5.53;2.60;;;13.00;89.00;;;;;;5096572;28;20017;-70
2022/09/26 11:14:06;;;;;;;7.15;2.28;;;13.00;89.40;;;;;;5096497;28;20021;-71
2022/09/26 11:16:59;;;;;;;4.45;2.35;;;13.00;89.60;;;;;;5096457;28;20024;-70
2022/09/26 11:19:49;;;;;;;6.85;2.35;;;13.00;90.20;;;;;;5094014;28;20036;-72
2022/09/26 11:22:18;;;;;;;4.55;2.40;;;13.00;89.90;;;;;;5096347;28;20031;-71
2022/09/26 11:25:03;;;;;;;5.18;3.03;;;13.10;90.20;;;;;;5096261;28;20084;-71
2022/09/26 11:27:44;;;;;;;4.60;2.60;;;13.00;90.20;;;;;;5096271;28;20020;-72
2022/09/26 11:30:18;;;;;;;5.13;2.35;;;13.00;90.50;;;;;;5096140;28;20059;-72
2022/09/26 11:32:48;;;;;;;7.18;2.97;;;13.00;90.40;;;;;;5096159;28;20028;-71
2022/09/26 11:35:20;;;;;;;5.47;2.63;;;13.00;90.40;;;;;;5096082;28;20043;-71
2022/09/26 11:38:37;;;;;;;3.90;2.40;;;13.00;90.40;;;;;;5096073;28;20032;-71
2022/09/26 11:41:06;;;;;;;3.45;2.20;;;13.00;90.40;;;;;;5095949;28;20080;-71
2022/09/26 11:44:19;;;;;;;5.75;2.10;;;13.10;90.30;;;;;;5095932;28;20017;-71
2022/09/26 11:47:09;;;;;;;4.70;2.40;;;13.00;90.40;;;;;;5034118;28;20032;-71
2022/09/26 11:49:50;;;;;;;5.38;2.78;;;12.90;90.70;;;;;;5091417;28;20104;-70
2022/09/26 11:52:36;;;;;;;4.25;2.63;;;12.90;90.90;;;;;;5095759;28;20024;-71
2022/09/26 11:55:25;;;;;;;6.00;2.40;;;12.90;91.10;;;;;;5095792;28;20032;-70
2022/09/26 11:58:00;;;;;;;7.80;2.45;;;13.00;90.90;;;;;;5094710;28;20027;-71
2022/09/26 12:00:42;;;;;;;3.50;2.38;;;13.00;91.00;;;;;;5095328;28;20043;-71
2022/09/26 12:03:29;;;;;;;4.30;2.47;;;13.00;90.90;;;;;;5095662;28;20017;-71
2022/09/26 12:06:26;;;;;;;3.10;1.98;;;12.90;90.80;;;;;;5094869;28;20270;-71
2022/09/26 12:09:28;;;;;;;4.68;2.30;;;12.90;91.20;;;;;;5095657;28;20020;-71
2022/09/26 12:12:18;;;;;;;4.47;2.20;;;12.80;91.20;;;;;;5095490;28;20016;-71
2022/09/26 12:14:52;;;;;;;4.50;2.50;;;12.90;91.10;;;;;;5095530;28;20031;-71
2022/09/26 12:17:35;;;;;;;5.20;2.67;;;12.90;91.20;;;;;;5095360;28;20020;-71
2022/09/26 12:20:00;;;;;;;4.90;2.78;;;12.80;91.20;;;;;;5095276;28;20048;-72
2022/09/26 12:22:51;;;;;;;4.22;2.45;;;12.80;91.40;;;;;;5095187;28;20027;-71
2022/09/26 12:25:28;;;;;;;9.13;2.90;;;12.90;91.30;;;;;;5095204;28;20024;-71
2022/09/26 12:27:59;;;;;;;6.53;2.95;;;12.90;91.30;;;;;;5095266;28;20024;-71
2022/09/26 12:30:48;;;;;;;6.38;2.47;;;12.90;91.30;;;;;;5095042;28;20024;-72
2022/09/26 12:33:54;;;;;;;3.67;2.22;;;12.90;91.20;;;;;;5065301;28;20123;-71
2022/09/26 12:36:47;;;;;;;3.25;2.03;;;12.90;91.90;;;;;;5094948;28;20510;-72
2022/09/26 12:39:21;;;;;;;5.57;2.60;;;12.80;91.60;;;;;;5094994;28;20029;-72
2022/09/26 12:42:24;;;;;;;4.25;2.10;;;12.90;91.50;;;;;;5093776;28;20476;-71
2022/09/26 12:45:28;;;;;;;5.45;2.40;;;12.90;91.50;;;;;;5094761;28;20039;-72
2022/09/26 12:48:00;;;;;;;4.97;2.50;;;12.90;91.50;;;;;;5094864;28;20021;-71
2022/09/26 12:50:45;;;;;;;4.43;2.63;;;12.90;91.80;;;;;;5094685;28;20044;-72
2022/09/26 12:53:39;;;;;;;3.58;2.05;;;12.90;91.60;;;;;;5094577;28;20076;-71
2022/09/26 12:56:11;;;;;;;2.95;2.20;;;13.00;91.80;;;;;;5094680;28;20028;-72
2022/09/26 12:59:05;;;;;;;4.88;2.45;;;13.00;91.70;;;;;;5094286;28;20076;-72
2022/09/26 13:02:19;;;;;;;3.22;2.30;;;13.10;91.50;;;;;;5094429;28;20048;-72
2022/09/26 13:04:51;;;;;;;3.05;2.03;;;13.00;91.70;;;;;;5067454;28;20040;-71
2022/09/26 13:07:41;;;;;;;3.03;2.00;;;13.00;91.70;;;;;;5094313;28;20020;-72
2022/09/26 13:10:31;;;;;;;5.00;2.42;;;13.00;91.80;;;;;;5094420;28;20028;-71
2022/09/26 13:13:01;;;;;;;5.80;2.33;;;12.90;91.90;;;;;;5094235;28;20107;-71
2022/09/26 13:15:38;;;;;;;7.07;2.88;;;12.90;92.00;;;;;;5094176;28;20024;-72
2022/09/26 13:18:11;;;;;;;5.40;2.45;;;12.90;92.00;;;;;;5093270;28;20050;-71
2022/09/26 13:20:48;;;;;;;4.40;2.60;;;12.90;91.90;;;;;;5094120;28;20035;-72
2022/09/26 13:23:33;;;;;;;4.53;2.55;;;13.00;91.90;;;;;;5094107;28;20020;-72
2022/09/26 13:26:06;;;;;;;3.05;2.22;;;13.00;91.80;;;;;;5094027;28;20021;-71
2022/09/26 13:28:45;;;;;;;5.07;2.63;;;13.00;91.80;;;;;;5093876;28;20038;-72
2022/09/26 13:31:20;;;;;;;3.80;2.70;;;13.00;91.70;;;;;;5093927;28;20032;-72